Time;durP1;ratioP1;P1;durP2;ratioP2;P2;SDS_P1;SDS_P2;PMS_P1;PMS_P2;Temp;Humidity;BMP_temperature;BMP_pressure;BME280_temperature;BME280_humidity;BME280_pressure;Samples;Min_cycle;Max_cycle;Signal;HPM_P1;HPM_P2
2023/12/06 00:01:24;;;;;;;7.20;5.30;;;;;;;23.42;29.21;100882.23;102743;1294;61361;-83
2023/12/06 00:03:49;;;;;;;7.50;5.40;;;;;;;23.42;29.19;100884.21;102369;1299;61368;-82
2023/12/06 00:06:15;;;;;;;7.00;5.10;;;;;;;23.44;29.23;100884.85;102544;1293;61399;-82
2023/12/06 00:08:41;;;;;;;8.00;5.40;;;;;;;23.44;29.21;100885.38;102548;1294;61774;-82
2023/12/06 00:11:07;;;;;;;8.50;5.40;;;;;;;23.44;29.23;100887.15;102471;1294;61817;-85
2023/12/06 00:13:33;;;;;;;7.40;5.50;;;;;;;23.45;29.21;100885.85;102718;1296;61910;-82
2023/12/06 00:15:58;;;;;;;7.90;5.60;;;;;;;23.45;29.22;100888.18;102717;1294;61387;-84
2023/12/06 00:18:24;;;;;;;9.00;5.90;;;;;;;23.45;29.18;100890.54;102661;1294;61355;-83
2023/12/06 00:20:50;;;;;;;7.20;5.20;;;;;;;23.46;29.19;100891.20;102756;1296;61372;-82
2023/12/06 00:23:15;;;;;;;8.80;5.50;;;;;;;23.46;29.23;100890.80;102514;1298;61306;-82
2023/12/06 00:33:31;;;;;;;7.60;5.00;;;;;;;23.44;29.18;100893.79;102646;1294;71125;-83
2023/12/06 00:35:56;;;;;;;8.90;5.60;;;;;;;23.45;29.27;100894.60;102568;1298;61449;-81
2023/12/06 00:38:22;;;;;;;7.90;5.40;;;;;;;23.46;29.26;100895.09;102571;1292;61725;-83
2023/12/06 00:40:48;;;;;;;8.10;5.20;;;;;;;23.47;29.24;100892.55;102730;1296;61914;-83
2023/12/06 00:43:13;;;;;;;7.20;5.10;;;;;;;23.48;29.23;100890.65;102595;1298;61375;-83
2023/12/06 00:45:39;;;;;;;7.50;4.90;;;;;;;23.48;29.25;100888.12;102617;1298;62100;-83
2023/12/06 00:48:05;;;;;;;7.30;4.90;;;;;;;23.48;29.27;100888.45;102597;1299;61453;-82
2023/12/06 00:50:30;;;;;;;7.40;5.00;;;;;;;23.49;29.22;100887.88;102711;1294;61336;-82
2023/12/06 00:52:56;;;;;;;8.90;5.40;;;;;;;23.49;29.26;100887.86;102762;1294;61891;-82
2023/12/06 00:55:22;;;;;;;6.80;4.90;;;;;;;23.50;29.31;100884.38;102693;1294;61380;-83
2023/12/06 00:57:48;;;;;;;8.30;5.10;;;;;;;23.50;29.24;100882.20;102696;1294;61415;-82
2023/12/06 01:00:14;;;;;;;7.70;5.10;;;;;;;23.50;29.21;100879.48;102652;1293;75390;-82
2023/12/06 01:02:40;;;;;;;7.40;5.00;;;;;;;23.51;29.29;100874.08;102607;1296;61310;-83
2023/12/06 01:05:06;;;;;;;8.90;5.00;;;;;;;23.51;29.23;100875.61;102491;1294;61378;-85
2023/12/06 01:07:32;;;;;;;7.60;5.40;;;;;;;23.52;29.34;100871.44;102659;1294;61425;-83
2023/12/06 01:09:58;;;;;;;7.70;5.20;;;;;;;23.52;29.24;100869.12;102557;1299;61489;-83
2023/12/06 01:12:24;;;;;;;7.40;5.20;;;;;;;23.52;29.30;100868.56;102911;1296;61416;-82
2023/12/06 01:14:50;;;;;;;8.80;5.70;;;;;;;23.53;29.18;100864.73;102357;1294;61560;-82
2023/12/06 01:17:16;;;;;;;8.30;5.40;;;;;;;23.53;29.28;100862.89;102517;1294;61450;-83
2023/12/06 01:19:41;;;;;;;7.60;5.10;;;;;;;23.53;29.30;100861.80;102363;1297;63207;-82
2023/12/06 01:22:07;;;;;;;9.70;5.20;;;;;;;23.53;29.24;100860.91;102671;1296;61340;-81
2023/12/06 01:24:33;;;;;;;7.60;5.30;;;;;;;23.54;29.34;100855.43;102294;1293;61488;-84
2023/12/06 01:26:59;;;;;;;6.70;4.90;;;;;;;23.54;29.33;100853.27;102545;1294;61480;-83
2023/12/06 01:29:24;;;;;;;7.60;5.20;;;;;;;23.55;29.29;100848.73;102676;1297;61336;-83
2023/12/06 01:31:50;;;;;;;8.00;5.30;;;;;;;23.55;29.32;100847.66;102533;1299;61376;-83
2023/12/06 01:34:17;;;;;;;7.70;5.40;;;;;;;23.55;29.36;100847.27;102570;1294;62123;-85
2023/12/06 01:36:43;;;;;;;7.90;5.20;;;;;;;23.55;29.27;100841.33;102655;1296;61393;-82
2023/12/06 01:39:09;;;;;;;8.50;5.60;;;;;;;23.56;29.37;100841.67;102689;1296;62567;-82
2023/12/06 01:41:34;;;;;;;8.50;6.00;;;;;;;23.56;29.30;100834.29;102577;1294;61935;-82
2023/12/06 01:44:00;;;;;;;8.20;5.00;;;;;;;23.56;29.36;100831.23;102576;1294;61471;-82
2023/12/06 01:46:26;;;;;;;7.00;4.90;;;;;;;23.56;29.29;100823.10;102607;1294;61481;-82
2023/12/06 01:48:52;;;;;;;8.40;5.30;;;;;;;23.56;29.33;100822.90;102711;1292;61424;-82
2023/12/06 01:51:18;;;;;;;7.20;5.40;;;;;;;23.57;29.33;100818.23;102545;1297;61407;-83
2023/12/06 01:53:44;;;;;;;7.70;5.20;;;;;;;23.57;29.32;100817.48;102331;1297;62303;-85
2023/12/06 01:56:10;;;;;;;7.30;5.00;;;;;;;23.57;29.35;100815.86;102550;1297;61323;-83
2023/12/06 01:58:37;;;;;;;7.60;5.20;;;;;;;23.57;29.31;100811.17;102314;1297;62175;-83
2023/12/06 02:01:04;;;;;;;9.40;4.90;;;;;;;23.58;29.43;100807.02;102270;1297;62106;-84
2023/12/06 02:03:29;;;;;;;7.40;5.10;;;;;;;23.58;29.29;100803.39;102326;1302;72243;-82
2023/12/06 02:05:55;;;;;;;7.40;5.30;;;;;;;23.58;29.42;100794.05;102366;1302;62269;-81
2023/12/06 02:08:21;;;;;;;6.70;4.90;;;;;;;23.58;29.38;100794.20;102260;1296;61913;-82
2023/12/06 02:10:48;;;;;;;8.90;4.90;;;;;;;23.59;29.32;100794.17;102240;1296;61370;-82
2023/12/06 02:13:13;;;;;;;9.20;5.40;;;;;;;23.59;29.30;100795.02;102181;1297;61547;-82
2023/12/06 02:15:40;;;;;;;8.80;4.90;;;;;;;23.59;29.39;100791.09;102212;1302;61364;-82
2023/12/06 02:18:05;;;;;;;11.10;5.40;;;;;;;23.59;29.37;100791.05;102247;1296;61823;-84
2023/12/06 02:20:31;;;;;;;7.70;5.40;;;;;;;23.60;29.39;100793.17;102300;1296;61568;-82
2023/12/06 02:22:57;;;;;;;7.00;5.30;;;;;;;23.60;29.46;100798.36;102214;1296;61498;-81
2023/12/06 02:25:23;;;;;;;9.60;5.40;;;;;;;23.61;29.40;100799.76;102174;1302;62060;-84
2023/12/06 02:27:49;;;;;;;8.60;5.30;;;;;;;23.61;29.42;100800.81;102226;1297;61428;-83
2023/12/06 02:30:15;;;;;;;7.10;4.70;;;;;;;23.61;29.35;100794.35;102218;1302;61803;-82
2023/12/06 02:32:40;;;;;;;6.70;5.20;;;;;;;23.62;29.32;100786.40;102413;1301;61517;-82
2023/12/06 02:35:13;;;;;;;7.60;4.90;;;;;;;23.63;29.39;100780.05;102258;1302;61602;-84
2023/12/06 02:37:39;;;;;;;8.70;5.20;;;;;;;23.63;29.42;100782.35;102507;1297;74399;-83
2023/12/06 02:40:06;;;;;;;7.40;5.20;;;;;;;23.63;29.41;100787.91;102604;1294;61303;-85
2023/12/06 02:42:32;;;;;;;6.80;4.70;;;;;;;23.63;29.44;100793.85;102697;1294;62540;-83
2023/12/06 02:44:58;;;;;;;7.00;4.50;;;;;;;23.63;29.40;100789.68;102563;1298;61415;-82
2023/12/06 02:47:24;;;;;;;6.60;4.80;;;;;;;23.64;29.37;100785.17;102648;1294;61392;-81
2023/12/06 02:49:50;;;;;;;7.00;4.70;;;;;;;23.64;29.51;100792.67;102586;1296;62524;-82
2023/12/06 02:52:17;;;;;;;7.10;5.20;;;;;;;23.64;29.56;100791.92;102729;1299;61490;-82
2023/12/06 02:54:42;;;;;;;8.00;5.30;;;;;;;23.65;29.40;100794.23;102575;1298;61344;-83
2023/12/06 02:57:08;;;;;;;7.80;5.20;;;;;;;23.66;29.40;100793.28;102533;1300;61481;-83
2023/12/06 02:59:34;;;;;;;8.40;5.20;;;;;;;23.66;29.36;100791.84;102679;1293;61412;-82
2023/12/06 03:01:59;;;;;;;7.70;5.00;;;;;;;23.66;29.43;100793.97;102602;1296;61411;-84
2023/12/06 03:04:25;;;;;;;7.70;5.20;;;;;;;23.66;29.37;100793.25;102726;1297;61939;-83
2023/12/06 03:06:50;;;;;;;7.40;5.10;;;;;;;23.66;29.57;100796.46;102536;1299;61427;-83
2023/12/06 03:09:16;;;;;;;7.00;4.90;;;;;;;23.66;29.46;100792.87;102702;1297;61417;-83
2023/12/06 03:11:42;;;;;;;9.30;5.20;;;;;;;23.66;29.48;100785.14;102540;1297;62047;-82
2023/12/06 03:14:08;;;;;;;6.90;5.20;;;;;;;23.66;29.52;100787.81;102587;1297;61424;-83
2023/12/06 03:16:34;;;;;;;7.00;5.00;;;;;;;23.66;29.50;100783.13;102353;1301;61402;-83
2023/12/06 03:19:01;;;;;;;7.80;5.00;;;;;;;23.67;29.53;100779.91;102556;1299;61388;-82
2023/12/06 03:21:27;;;;;;;8.90;5.30;;;;;;;23.67;29.58;100774.84;102535;1297;74629;-84
2023/12/06 03:23:52;;;;;;;8.70;5.00;;;;;;;23.68;29.50;100772.08;102659;1297;61397;-81
2023/12/06 03:26:18;;;;;;;8.10;5.10;;;;;;;23.68;29.56;100773.86;102568;1299;61425;-83
2023/12/06 03:28:44;;;;;;;7.50;4.80;;;;;;;23.68;29.42;100780.16;102538;1298;61366;-83
2023/12/06 03:31:09;;;;;;;8.50;5.40;;;;;;;23.68;29.59;100779.80;102352;1297;62234;-83
2023/12/06 03:33:35;;;;;;;6.40;4.50;;;;;;;23.69;29.49;100783.85;102643;1306;61433;-83
2023/12/06 03:36:01;;;;;;;9.60;4.70;;;;;;;23.69;29.54;100785.45;102724;1297;62323;-82
2023/12/06 03:38:26;;;;;;;7.10;5.10;;;;;;;23.69;29.57;100785.98;102593;1299;61458;-83
2023/12/06 03:40:52;;;;;;;7.60;5.10;;;;;;;23.70;29.51;100786.66;102555;1298;62211;-83
2023/12/06 03:43:18;;;;;;;7.10;5.00;;;;;;;23.69;29.53;100782.00;102314;1297;62592;-82
2023/12/06 03:45:44;;;;;;;9.10;5.20;;;;;;;23.70;29.51;100784.13;102329;1293;61432;-84
2023/12/06 03:48:09;;;;;;;8.30;5.10;;;;;;;23.70;29.59;100785.92;102716;1297;61427;-82
2023/12/06 03:50:35;;;;;;;7.50;5.00;;;;;;;23.70;29.51;100783.95;102644;1296;61399;-83
2023/12/06 03:53:01;;;;;;;7.30;5.10;;;;;;;23.70;29.56;100782.27;102784;1297;62558;-83
2023/12/06 03:55:26;;;;;;;8.70;5.10;;;;;;;23.70;29.64;100785.89;102550;1298;61386;-84
2023/12/06 03:57:52;;;;;;;8.20;4.70;;;;;;;23.70;29.60;100790.38;102535;1297;61488;-83
2023/12/06 04:00:18;;;;;;;9.80;5.00;;;;;;;23.71;29.60;100791.93;102603;1298;61422;-83
2023/12/06 04:02:43;;;;;;;7.80;5.40;;;;;;;23.71;29.61;100795.48;102439;1295;61386;-82
2023/12/06 04:05:09;;;;;;;8.00;5.00;;;;;;;23.72;29.60;100796.71;102679;1297;72577;-81
2023/12/06 04:07:36;;;;;;;6.50;4.30;;;;;;;23.71;29.59;100801.03;102652;1297;61495;-82
2023/12/06 04:10:02;;;;;;;7.30;5.20;;;;;;;23.73;29.64;100800.23;102650;1294;62979;-82
2023/12/06 04:12:27;;;;;;;8.20;5.10;;;;;;;23.72;29.66;100799.54;102432;1297;62346;-81
2023/12/06 04:14:54;;;;;;;8.40;5.20;;;;;;;23.72;29.68;100799.56;102346;1293;61802;-82
2023/12/06 04:17:20;;;;;;;6.40;4.70;;;;;;;23.72;29.57;100801.52;102721;1296;61398;-81
2023/12/06 04:19:46;;;;;;;6.90;4.70;;;;;;;23.73;29.59;100803.45;102531;1297;61457;-83
2023/12/06 04:22:12;;;;;;;7.30;4.70;;;;;;;23.73;29.59;100803.95;102516;1297;61498;-82
2023/12/06 04:24:38;;;;;;;7.60;4.70;;;;;;;23.74;29.65;100808.06;102539;1297;61449;-82
2023/12/06 04:27:04;;;;;;;8.60;4.90;;;;;;;23.74;29.63;100807.50;102528;1293;72627;-84
2023/12/06 04:29:30;;;;;;;7.70;5.00;;;;;;;23.74;29.66;100814.51;102393;1309;61405;-81
2023/12/06 04:31:55;;;;;;;6.70;4.70;;;;;;;23.74;29.63;100814.52;102787;1293;61432;-83
2023/12/06 04:34:21;;;;;;;7.40;4.80;;;;;;;23.73;29.59;100816.33;102762;1297;61397;-83
2023/12/06 04:36:47;;;;;;;8.60;4.80;;;;;;;23.72;29.53;100819.70;102734;1293;62261;-83
2023/12/06 04:39:12;;;;;;;8.50;5.20;;;;;;;23.71;29.54;100823.55;102679;1297;61496;-83
2023/12/06 04:41:38;;;;;;;8.50;5.10;;;;;;;23.70;29.61;100826.88;102838;1297;75533;-83
2023/12/06 04:44:04;;;;;;;7.20;4.90;;;;;;;23.68;29.49;100828.64;102707;1300;62567;-83
2023/12/06 04:46:30;;;;;;;7.40;5.00;;;;;;;23.66;29.43;100827.88;102886;1296;61332;-83
2023/12/06 04:48:55;;;;;;;8.00;5.20;;;;;;;23.65;29.35;100825.30;102660;1297;62062;-83
2023/12/06 04:51:21;;;;;;;8.30;5.60;;;;;;;23.64;29.43;100826.27;102836;1307;61370;-82
2023/12/06 04:53:47;;;;;;;12.10;5.30;;;;;;;23.63;29.25;100816.34;102803;1294;62543;-83
2023/12/06 04:56:13;;;;;;;7.20;5.30;;;;;;;23.61;29.20;100816.98;102888;1293;61293;-83
2023/12/06 04:58:39;;;;;;;8.20;5.40;;;;;;;23.58;29.29;100816.17;102826;1297;61359;-83
2023/12/06 05:01:04;;;;;;;9.60;5.90;;;;;;;23.55;29.12;100819.83;102838;1294;61456;-82
2023/12/06 05:03:31;;;;;;;9.30;6.00;;;;;;;23.51;29.15;100817.98;102644;1294;61407;-83
2023/12/06 05:05:57;;;;;;;10.30;5.70;;;;;;;23.48;29.15;100815.39;102496;1300;62405;-83
2023/12/06 05:08:22;;;;;;;8.20;5.50;;;;;;;23.45;29.08;100819.74;102733;1299;61358;-82
2023/12/06 05:10:48;;;;;;;9.30;5.80;;;;;;;23.42;29.11;100820.68;103016;1293;61417;-80
2023/12/06 05:13:14;;;;;;;10.00;5.60;;;;;;;23.40;28.99;100825.65;102820;1300;72630;-80
2023/12/06 05:15:40;;;;;;;9.80;6.10;;;;;;;23.39;28.92;100826.72;102728;1301;61694;-80
2023/12/06 05:18:06;;;;;;;9.80;6.10;;;;;;;23.37;28.90;100825.94;102627;1299;61493;-82
2023/12/06 05:20:31;;;;;;;13.50;6.00;;;;;;;23.34;28.84;100828.31;102629;1301;61499;-82
2023/12/06 05:22:57;;;;;;;9.90;5.40;;;;;;;23.32;28.97;100823.46;103105;1298;61435;-80
2023/12/06 05:25:23;;;;;;;10.00;5.50;;;;;;;23.29;28.95;100820.34;103015;1294;61309;-80
2023/12/06 05:27:48;;;;;;;8.70;5.60;;;;;;;23.25;28.86;100815.59;102950;1300;61454;-80
2023/12/06 05:30:14;;;;;;;8.10;5.90;;;;;;;23.22;28.79;100814.95;102962;1298;61315;-80
2023/12/06 05:32:40;;;;;;;8.30;5.20;;;;;;;23.17;28.66;100811.89;102526;1294;61517;-81
2023/12/06 05:35:07;;;;;;;7.40;4.60;;;;;;;23.13;28.79;100812.41;103128;1296;61510;-80
2023/12/06 05:37:33;;;;;;;7.50;5.10;;;;;;;23.08;28.70;100815.11;102700;1299;61433;-82
2023/12/06 05:39:58;;;;;;;7.00;4.90;;;;;;;23.02;28.59;100813.41;102887;1297;61463;-80
2023/12/06 05:42:24;;;;;;;8.30;4.70;;;;;;;22.96;28.70;100808.31;102871;1297;61346;-81
2023/12/06 05:44:50;;;;;;;8.60;4.30;;;;;;;22.90;28.57;100804.88;102652;1299;63049;-81
2023/12/06 05:47:16;;;;;;;7.20;4.40;;;;;;;22.85;28.83;100810.77;102791;1294;61495;-81
2023/12/06 05:49:42;;;;;;;7.00;4.30;;;;;;;22.84;29.00;100816.66;103021;1307;73757;-81
2023/12/06 05:52:07;;;;;;;10.40;4.80;;;;;;;22.81;29.11;100822.08;102945;1294;61344;-81
2023/12/06 05:54:33;;;;;;;9.00;4.80;;;;;;;22.78;29.20;100821.75;102987;1292;62239;-81
2023/12/06 05:56:59;;;;;;;8.20;4.60;;;;;;;22.76;29.38;100822.10;103282;1293;61405;-80
2023/12/06 05:59:25;;;;;;;10.00;4.50;;;;;;;22.73;29.37;100825.73;103576;1296;61402;-81
2023/12/06 06:01:51;;;;;;;10.50;4.40;;;;;;;22.69;29.47;100828.70;103567;1297;61419;-82
2023/12/06 06:04:16;;;;;;;7.00;4.30;;;;;;;22.66;29.41;100827.36;103406;1296;61441;-81
2023/12/06 06:06:42;;;;;;;8.60;4.20;;;;;;;22.63;29.61;100826.20;103169;1298;61298;-80
2023/12/06 06:09:09;;;;;;;6.20;4.20;;;;;;;22.58;29.36;100821.86;103521;1294;61335;-82
2023/12/06 06:11:34;;;;;;;6.80;4.10;;;;;;;22.55;29.35;100815.16;103867;1294;61406;-82
2023/12/06 06:14:00;;;;;;;7.80;4.20;;;;;;;22.52;29.36;100818.95;103486;1293;61411;-81
2023/12/06 06:16:26;;;;;;;7.70;4.20;;;;;;;22.49;29.19;100819.13;103083;1294;62597;-82
2023/12/06 06:18:52;;;;;;;8.90;4.50;;;;;;;22.49;29.27;100826.56;103393;1293;61853;-80
2023/12/06 06:21:18;;;;;;;8.20;4.50;;;;;;;22.47;29.21;100832.20;103487;1294;61326;-82
2023/12/06 06:23:45;;;;;;;5.90;4.10;;;;;;;22.47;29.32;100832.39;103231;1293;74411;-82
2023/12/06 06:26:12;;;;;;;8.80;4.40;;;;;;;22.46;29.10;100824.08;103286;1293;61356;-81
2023/12/06 06:28:38;;;;;;;6.70;4.50;;;;;;;22.44;29.11;100823.45;103389;1292;61284;-81
2023/12/06 06:31:04;;;;;;;9.20;4.20;;;;;;;22.43;29.17;100825.16;103334;1293;61858;-80
2023/12/06 06:33:30;;;;;;;9.50;4.40;;;;;;;22.42;29.21;100823.45;103030;1296;62655;-81
2023/12/06 06:35:56;;;;;;;7.20;4.20;;;;;;;22.40;29.27;100824.48;103270;1293;61359;-80
2023/12/06 06:38:22;;;;;;;10.20;4.60;;;;;;;22.39;29.15;100818.49;103213;1292;61338;-81
2023/12/06 06:40:47;;;;;;;6.20;4.60;;;;;;;22.37;29.11;100816.11;103064;1293;61433;-82
2023/12/06 06:43:13;;;;;;;10.70;4.70;;;;;;;22.36;29.10;100816.23;103444;1297;61409;-82
2023/12/06 06:45:42;;;;;;;8.50;4.90;;;;;;;22.34;29.28;100819.55;103147;1294;74556;-81
2023/12/06 06:48:09;;;;;;;7.10;4.20;;;;;;;22.34;29.26;100811.73;105165;1293;61182;-80
2023/12/06 06:50:35;;;;;;;7.10;4.60;;;;;;;22.33;29.37;100810.48;103488;1293;61576;-81
2023/12/06 06:53:03;;;;;;;6.00;4.10;;;;;;;22.37;29.25;100807.55;103537;1296;72618;-81
2023/12/06 06:55:28;;;;;;;11.60;4.20;;;;;;;22.40;29.29;100807.98;103825;1299;61295;-81
2023/12/06 06:57:54;;;;;;;7.00;4.20;;;;;;;22.43;29.37;100804.92;103724;1293;61391;-80
2023/12/06 07:00:20;;;;;;;7.70;4.50;;;;;;;22.44;29.51;100810.23;103565;1293;61294;-81
2023/12/06 07:02:47;;;;;;;10.50;4.40;;;;;;;22.44;29.89;100813.46;103432;1292;61515;-81
2023/12/06 07:05:13;;;;;;;13.80;4.90;;;;;;;22.45;30.01;100817.70;103395;1295;61337;-80
2023/12/06 07:07:40;;;;;;;10.50;4.40;;;;;;;22.49;30.22;100822.80;103492;1292;61315;-81
2023/12/06 07:10:06;;;;;;;8.20;4.40;;;;;;;22.54;30.32;100827.40;103635;1294;61489;-80
2023/12/06 07:12:34;;;;;;;9.80;4.00;;;;;;;22.59;30.26;100830.06;103476;1294;61240;-81
2023/12/06 07:14:59;;;;;;;10.00;4.00;;;;;;;22.65;30.24;100831.06;103580;1292;60914;-82
2023/12/06 07:17:25;;;;;;;8.40;4.20;;;;;;;22.70;30.33;100832.78;103421;1293;61502;-80
2023/12/06 07:19:51;;;;;;;11.20;4.00;;;;;;;22.75;30.29;100833.83;103297;1294;61230;-81
2023/12/06 07:22:17;;;;;;;8.20;4.50;;;;;;;22.77;30.29;100829.00;103403;1296;61708;-80
2023/12/06 07:24:43;;;;;;;10.70;5.00;;;;;;;22.80;30.30;100826.85;103197;1296;60245;-80
2023/12/06 07:27:09;;;;;;;9.50;4.60;;;;;;;22.84;30.14;100827.77;103067;1294;75436;-81
2023/12/06 07:29:36;;;;;;;9.30;3.80;;;;;;;22.88;30.21;100828.15;103228;1294;61316;-81
2023/12/06 07:32:03;;;;;;;9.80;4.50;;;;;;;22.92;30.18;100826.61;105557;1293;61909;-81
2023/12/06 07:34:29;;;;;;;15.90;4.50;;;;;;;22.96;30.30;100830.21;105416;1296;58964;-81
2023/12/06 07:36:55;;;;;;;9.60;4.40;;;;;;;23.01;30.33;100828.42;104793;1296;262702;-82
2023/12/06 07:39:21;;;;;;;16.50;4.60;;;;;;;23.04;30.30;100832.10;103278;1294;62465;-81
2023/12/06 07:41:46;;;;;;;8.50;4.30;;;;;;;23.08;30.40;100836.46;103607;1292;61240;-82
2023/12/06 07:44:13;;;;;;;12.60;4.40;;;;;;;23.12;30.27;100839.40;103228;1294;61483;-82
2023/12/06 07:46:39;;;;;;;17.90;4.50;;;;;;;23.14;30.48;100840.17;103416;1293;61916;-80
2023/12/06 07:49:05;;;;;;;12.00;4.30;;;;;;;23.17;30.45;100845.14;103261;1293;61312;-82
2023/12/06 07:51:30;;;;;;;24.60;4.90;;;;;;;23.20;30.93;100850.65;103467;1295;59891;-81
2023/12/06 07:53:56;;;;;;;16.70;5.00;;;;;;;23.22;31.43;100852.98;103611;1294;61289;-80
2023/12/06 07:56:22;;;;;;;21.10;5.30;;;;;;;23.23;31.92;100857.44;105163;1293;59426;-80
2023/12/06 07:58:51;;;;;;;17.60;5.30;;;;;;;23.24;32.40;100858.73;105528;1293;59436;-81
2023/12/06 08:01:16;;;;;;;11.00;4.70;;;;;;;23.25;32.59;100859.91;104284;1293;61291;-82
2023/12/06 08:03:44;;;;;;;10.90;4.80;;;;;;;23.26;32.43;100860.95;103525;1294;61364;-81
2023/12/06 08:06:09;;;;;;;10.10;4.40;;;;;;;23.27;32.27;100864.45;103398;1293;72197;-81
2023/12/06 08:08:35;;;;;;;11.30;4.40;;;;;;;23.27;32.26;100864.26;103371;1296;61450;-81
2023/12/06 08:11:01;;;;;;;15.70;4.70;;;;;;;23.29;32.05;100863.45;103129;1292;61304;-80
2023/12/06 08:13:27;;;;;;;12.40;4.70;;;;;;;23.30;32.10;100860.42;103190;1296;61316;-81
2023/12/06 08:15:53;;;;;;;12.20;4.40;;;;;;;23.32;31.99;100858.88;103531;1296;60315;-81
2023/12/06 08:18:19;;;;;;;11.20;4.10;;;;;;;23.34;31.97;100861.59;103794;1296;61316;-82
2023/12/06 08:20:45;;;;;;;14.10;4.10;;;;;;;23.36;31.79;100858.71;103558;1292;61410;-82
2023/12/06 08:23:11;;;;;;;10.10;4.40;;;;;;;23.36;31.86;100859.92;103450;1299;61288;-79
2023/12/06 08:25:40;;;;;;;11.10;4.50;;;;;;;23.38;31.77;100860.16;103561;1294;61205;-79
2023/12/06 08:28:06;;;;;;;10.10;4.70;;;;;;;23.40;31.71;100860.55;105356;1294;73733;-82
2023/12/06 08:30:32;;;;;;;12.30;4.00;;;;;;;23.42;31.70;100861.78;105543;1293;59574;-80
2023/12/06 08:32:57;;;;;;;10.80;4.20;;;;;;;23.45;31.72;100854.40;105317;1293;59559;-82
2023/12/06 08:35:23;;;;;;;9.70;4.20;;;;;;;23.48;31.73;100851.86;105349;1293;60172;-81
2023/12/06 08:37:49;;;;;;;16.30;4.20;;;;;;;23.50;31.72;100851.67;105249;1293;59450;-81
2023/12/06 08:40:15;;;;;;;9.20;4.10;;;;;;;23.52;31.79;100847.20;105433;1293;60057;-82
2023/12/06 08:42:41;;;;;;;13.60;4.30;;;;;;;23.55;31.74;100846.42;105410;1295;74439;-82
2023/12/06 08:45:10;;;;;;;8.70;3.90;;;;;;;23.56;31.68;100843.95;105469;1292;59704;-80
2023/12/06 08:47:35;;;;;;;13.10;4.60;;;;;;;23.58;31.83;100843.10;105563;1293;61329;-80
2023/12/06 08:50:04;;;;;;;9.70;4.00;;;;;;;23.59;31.76;100837.29;105552;1293;59822;-81
2023/12/06 08:52:30;;;;;;;9.50;4.40;;;;;;;23.61;31.78;100832.61;105534;1293;73346;-83
2023/12/06 08:54:55;;;;;;;7.70;4.20;;;;;;;23.62;31.60;100831.30;104913;1294;59250;-81
2023/12/06 08:57:21;;;;;;;19.60;4.60;;;;;;;23.60;31.62;100830.16;103685;1292;61368;-79
2023/12/06 08:59:47;;;;;;;25.00;4.50;;;;;;;23.58;31.62;100826.55;103529;1294;61248;-80
2023/12/06 09:02:13;;;;;;;17.30;5.10;;;;;;;23.56;31.59;100825.30;103643;1298;61428;-81
2023/12/06 09:04:38;;;;;;;14.20;4.60;;;;;;;23.53;31.71;100822.54;103542;1294;61532;-80
2023/12/06 09:07:05;;;;;;;10.50;4.10;;;;;;;23.50;31.78;100818.77;103501;1292;61490;-80
2023/12/06 09:09:31;;;;;;;13.80;4.20;;;;;;;23.49;31.96;100812.42;103338;1293;61124;-81
2023/12/06 09:11:57;;;;;;;14.20;4.80;;;;;;;23.46;31.96;100808.84;103494;1293;61350;-80
2023/12/06 09:14:23;;;;;;;13.70;4.30;;;;;;;23.44;31.95;100801.83;103768;1292;61310;-81
2023/12/06 09:16:48;;;;;;;10.30;4.60;;;;;;;23.42;32.00;100803.42;103336;1293;61470;-80
2023/12/06 09:19:14;;;;;;;17.50;4.10;;;;;;;23.40;32.12;100799.45;103472;1293;63019;-81
2023/12/06 09:21:45;;;;;;;15.60;4.40;;;;;;;23.38;32.13;100796.73;103395;1293;61332;-81
2023/12/06 09:24:11;;;;;;;13.70;4.50;;;;;;;23.36;32.10;100794.75;103410;1294;75168;-79
2023/12/06 09:26:37;;;;;;;13.60;4.40;;;;;;;23.34;32.12;100791.52;103438;1293;61357;-79
2023/12/06 09:29:05;;;;;;;13.10;4.20;;;;;;;23.32;32.17;100792.02;103479;1293;61409;-79
2023/12/06 09:31:33;;;;;;;10.10;4.00;;;;;;;23.30;32.19;100785.19;103233;1294;73745;-80
2023/12/06 09:33:59;;;;;;;17.00;4.40;;;;;;;23.29;32.27;100784.77;103453;1296;74128;-81
2023/12/06 09:36:26;;;;;;;18.10;4.70;;;;;;;23.25;32.31;100778.42;103298;1293;61360;-81
2023/12/06 09:38:52;;;;;;;11.10;4.50;;;;;;;23.21;32.35;100775.91;103153;1299;61399;-79
2023/12/06 09:41:20;;;;;;;9.30;3.70;;;;;;;23.17;32.50;100779.63;103256;1294;62026;-81
2023/12/06 09:43:45;;;;;;;11.60;4.00;;;;;;;23.13;32.53;100776.48;103197;1298;76530;-78
2023/12/06 09:46:13;;;;;;;13.20;4.40;;;;;;;23.11;32.61;100775.05;103382;1294;61431;-79
2023/12/06 09:48:38;;;;;;;12.90;4.50;;;;;;;23.00;32.70;100775.40;105021;1292;61368;-80
2023/12/06 09:51:04;;;;;;;13.60;5.10;;;;;;;22.94;32.90;100763.84;103617;1295;61498;-82
2023/12/06 09:53:30;;;;;;;10.00;4.30;;;;;;;22.87;32.85;100762.06;103941;1294;61320;-79
2023/12/06 09:55:57;;;;;;;10.70;5.00;;;;;;;22.79;32.96;100764.43;103560;1298;61629;-81
2023/12/06 09:58:22;;;;;;;18.40;5.40;;;;;;;22.60;32.64;100759.82;104588;1298;59362;-81
2023/12/06 10:00:48;;;;;;;11.00;4.60;;;;;;;22.41;32.76;100753.02;104679;1293;60044;-80
2023/12/06 10:03:15;;;;;;;13.00;4.50;;;;;;;22.28;32.71;100748.16;103996;1293;61288;-79
2023/12/06 10:05:41;;;;;;;14.60;5.00;;;;;;;22.19;32.71;100742.69;104093;1293;73395;-81
2023/12/06 10:08:07;;;;;;;13.50;5.30;;;;;;;22.06;32.88;100737.08;103924;1293;60859;-80
2023/12/06 10:10:33;;;;;;;14.40;4.60;;;;;;;21.97;32.66;100735.45;103828;1293;61290;-81
2023/12/06 10:12:58;;;;;;;12.50;5.30;;;;;;;21.76;32.74;100733.95;104189;1293;61432;-81
2023/12/06 10:15:24;;;;;;;12.20;5.20;;;;;;;21.70;33.02;100733.89;104181;1297;59664;-80
2023/12/06 10:17:51;;;;;;;18.20;5.30;;;;;;;21.63;32.74;100735.67;103991;1293;60493;-81
2023/12/06 10:20:17;;;;;;;14.60;4.80;;;;;;;21.57;32.83;100733.23;104609;1296;60010;-81
2023/12/06 10:22:44;;;;;;;11.00;4.30;;;;;;;21.53;32.99;100736.91;104572;1296;61333;-79
2023/12/06 10:25:10;;;;;;;18.10;5.00;;;;;;;21.51;33.01;100727.02;103404;1293;71751;-82
2023/12/06 10:27:36;;;;;;;17.30;5.30;;;;;;;21.58;33.10;100726.54;103532;1296;60088;-81
2023/12/06 10:30:05;;;;;;;11.80;4.30;;;;;;;21.65;33.45;100723.91;103368;1293;61506;-79
2023/12/06 10:32:31;;;;;;;;;;;;;;;21.70;33.58;100722.56;104033;1294;61310;-81
2023/12/06 10:35:01;;;;;;;11.60;4.40;;;;;;;21.71;33.75;100726.96;103733;1293;62946;-80
2023/12/06 10:37:27;;;;;;;15.10;5.10;;;;;;;21.78;33.74;100730.27;103630;1293;74363;-82
2023/12/06 10:39:59;;;;;;;13.60;5.40;;;;;;;21.82;33.87;100727.80;103538;1293;61396;-81
2023/12/06 10:42:32;;;;;;;13.40;4.50;;;;;;;21.88;33.97;100726.84;103805;1293;61311;-81
2023/12/06 10:44:58;;;;;;;8.40;4.10;;;;;;;21.91;33.74;100724.40;103657;1296;72322;-82
2023/12/06 10:47:24;;;;;;;14.90;4.80;;;;;;;21.90;33.98;100722.30;103535;1293;75622;-82
2023/12/06 10:49:50;;;;;;;12.60;5.70;;;;;;;21.81;33.66;100717.10;104011;1298;61348;-80
2023/12/06 10:52:15;;;;;;;13.30;5.30;;;;;;;21.57;33.74;100713.87;103717;1293;61844;-80
2023/12/06 10:54:42;;;;;;;10.40;5.10;;;;;;;21.47;33.65;100717.98;103679;1297;61252;-82
2023/12/06 10:57:09;;;;;;;14.40;5.20;;;;;;;21.49;33.76;100714.27;104439;1296;61262;-83
2023/12/06 10:59:34;;;;;;;9.00;4.90;;;;;;;21.53;33.87;100713.61;103953;1294;61325;-83
2023/12/06 11:02:00;;;;;;;10.50;6.10;;;;;;;21.47;33.51;100716.39;103911;1293;61323;-81
2023/12/06 11:04:28;;;;;;;10.00;5.50;;;;;;;21.07;32.98;100728.08;104192;1293;68304;-81
2023/12/06 11:07:17;;;;;;;10.80;5.60;;;;;;;20.69;32.83;100733.28;103552;1293;72465;-81
2023/12/06 11:10:09;;;;;;;10.50;5.50;;;;;;;20.43;33.14;100742.90;104740;1293;74681;-83
2023/12/06 11:12:51;;;;;;;14.00;5.30;;;;;;;20.45;33.25;100746.04;104616;1294;61416;-86
2023/12/06 11:16:16;;;;;;;10.70;4.80;;;;;;;20.50;33.45;100740.64;104582;1292;61227;-83
2023/12/06 11:18:49;;;;;;;9.10;5.10;;;;;;;20.55;33.42;100740.27;104396;1297;73750;-83